sensor_id;sensor_type;location;lat;lon;timestamp;P1;durP1;ratioP1;P2;durP2;ratioP2
64140;SDS011;50436;50.618;7.932;2024-01-11T00:00:31;0.20;;;0.20;;
64140;SDS011;50436;50.618;7.932;2024-01-11T00:03:17;0.20;;;0.20;;
64140;SDS011;50436;50.618;7.932;2024-01-11T00:06:03;0.20;;;0.20;;
64140;SDS011;50436;50.618;7.932;2024-01-11T00:08:49;0.20;;;0.20;;
64140;SDS011;50436;50.618;7.932;2024-01-11T00:11:35;0.20;;;0.20;;
64140;SDS011;50436;50.618;7.932;2024-01-11T00:14:21;0.20;;;0.20;;
64140;SDS011;50436;50.618;7.932;2024-01-11T00:17:07;0.10;;;0.10;;
64140;SDS011;50436;50.618;7.932;2024-01-11T00:19:53;0.20;;;0.20;;
64140;SDS011;50436;50.618;7.932;2024-01-11T00:22:39;0.20;;;0.20;;
64140;SDS011;50436;50.618;7.932;2024-01-11T00:25:25;0.20;;;0.20;;
64140;SDS011;50436;50.618;7.932;2024-01-11T00:28:11;0.20;;;0.20;;
64140;SDS011;50436;50.618;7.932;2024-01-11T00:30:56;0.20;;;0.20;;
64140;SDS011;50436;50.618;7.932;2024-01-11T00:33:42;0.20;;;0.20;;
64140;SDS011;50436;50.618;7.932;2024-01-11T00:36:28;0.20;;;0.20;;
64140;SDS011;50436;50.618;7.932;2024-01-11T00:39:14;0.20;;;0.20;;
64140;SDS011;50436;50.618;7.932;2024-01-11T00:42:00;0.20;;;0.20;;
64140;SDS011;50436;50.618;7.932;2024-01-11T00:44:46;0.20;;;0.20;;
64140;SDS011;50436;50.618;7.932;2024-01-11T00:47:32;0.28;;;0.28;;
64140;SDS011;50436;50.618;7.932;2024-01-11T00:50:18;0.20;;;0.20;;
64140;SDS011;50436;50.618;7.932;2024-01-11T00:53:04;0.20;;;0.20;;
64140;SDS011;50436;50.618;7.932;2024-01-11T00:55:50;0.20;;;0.20;;
64140;SDS011;50436;50.618;7.932;2024-01-11T00:58:36;0.20;;;0.20;;
64140;SDS011;50436;50.618;7.932;2024-01-11T01:01:23;0.20;;;0.20;;
64140;SDS011;50436;50.618;7.932;2024-01-11T01:04:09;0.20;;;0.20;;
64140;SDS011;50436;50.618;7.932;2024-01-11T01:06:55;0.20;;;0.20;;
64140;SDS011;50436;50.618;7.932;2024-01-11T01:09:41;0.20;;;0.20;;
64140;SDS011;50436;50.618;7.932;2024-01-11T01:12:27;0.20;;;0.20;;
64140;SDS011;50436;50.618;7.932;2024-01-11T01:15:14;0.20;;;0.20;;
64140;SDS011;50436;50.618;7.932;2024-01-11T01:18:00;0.20;;;0.20;;
64140;SDS011;50436;50.618;7.932;2024-01-11T01:20:45;0.20;;;0.20;;
64140;SDS011;50436;50.618;7.932;2024-01-11T01:23:31;0.20;;;0.20;;
64140;SDS011;50436;50.618;7.932;2024-01-11T01:26:17;0.20;;;0.20;;
64140;SDS011;50436;50.618;7.932;2024-01-11T01:29:03;0.20;;;0.20;;
64140;SDS011;50436;50.618;7.932;2024-01-11T01:31:50;0.20;;;0.20;;
64140;SDS011;50436;50.618;7.932;2024-01-11T01:34:39;0.20;;;0.20;;
64140;SDS011;50436;50.618;7.932;2024-01-11T01:37:24;0.20;;;0.20;;
64140;SDS011;50436;50.618;7.932;2024-01-11T01:40:11;0.10;;;0.10;;
64140;SDS011;50436;50.618;7.932;2024-01-11T01:42:58;0.20;;;0.20;;
64140;SDS011;50436;50.618;7.932;2024-01-11T01:45:45;0.20;;;0.20;;
64140;SDS011;50436;50.618;7.932;2024-01-11T01:48:32;0.20;;;0.20;;
64140;SDS011;50436;50.618;7.932;2024-01-11T01:51:18;0.20;;;0.20;;
64140;SDS011;50436;50.618;7.932;2024-01-11T01:54:04;0.20;;;0.20;;
64140;SDS011;50436;50.618;7.932;2024-01-11T01:56:50;0.20;;;0.20;;
64140;SDS011;50436;50.618;7.932;2024-01-11T01:59:38;0.20;;;0.20;;
64140;SDS011;50436;50.618;7.932;2024-01-11T02:02:25;0.20;;;0.20;;
64140;SDS011;50436;50.618;7.932;2024-01-11T02:05:12;0.20;;;0.20;;
64140;SDS011;50436;50.618;7.932;2024-01-11T02:08:00;0.20;;;0.20;;
64140;SDS011;50436;50.618;7.932;2024-01-11T02:10:49;0.20;;;0.20;;
64140;SDS011;50436;50.618;7.932;2024-01-11T02:13:35;0.20;;;0.20;;
64140;SDS011;50436;50.618;7.932;2024-01-11T02:16:20;0.20;;;0.20;;
64140;SDS011;50436;50.618;7.932;2024-01-11T02:19:06;0.20;;;0.20;;
64140;SDS011;50436;50.618;7.932;2024-01-11T02:21:54;0.20;;;0.20;;
64140;SDS011;50436;50.618;7.932;2024-01-11T02:24:40;0.20;;;0.20;;
64140;SDS011;50436;50.618;7.932;2024-01-11T02:27:26;0.20;;;0.20;;
64140;SDS011;50436;50.618;7.932;2024-01-11T02:30:12;0.20;;;0.20;;
64140;SDS011;50436;50.618;7.932;2024-01-11T02:32:58;0.20;;;0.20;;
64140;SDS011;50436;50.618;7.932;2024-01-11T02:35:45;0.20;;;0.20;;
64140;SDS011;50436;50.618;7.932;2024-01-11T02:38:31;0.30;;;0.30;;
64140;SDS011;50436;50.618;7.932;2024-01-11T02:41:18;0.20;;;0.20;;
64140;SDS011;50436;50.618;7.932;2024-01-11T02:44:04;0.20;;;0.20;;
64140;SDS011;50436;50.618;7.932;2024-01-11T02:46:50;0.20;;;0.20;;
64140;SDS011;50436;50.618;7.932;2024-01-11T02:49:36;0.20;;;0.20;;
64140;SDS011;50436;50.618;7.932;2024-01-11T02:52:24;0.20;;;0.20;;
64140;SDS011;50436;50.618;7.932;2024-01-11T02:55:10;0.20;;;0.20;;
64140;SDS011;50436;50.618;7.932;2024-01-11T02:57:56;0.20;;;0.20;;
64140;SDS011;50436;50.618;7.932;2024-01-11T03:00:42;0.25;;;0.25;;
64140;SDS011;50436;50.618;7.932;2024-01-11T03:03:28;0.20;;;0.20;;
64140;SDS011;50436;50.618;7.932;2024-01-11T03:06:14;0.22;;;0.22;;
64140;SDS011;50436;50.618;7.932;2024-01-11T03:08:59;0.20;;;0.20;;
64140;SDS011;50436;50.618;7.932;2024-01-11T03:11:45;0.20;;;0.20;;
64140;SDS011;50436;50.618;7.932;2024-01-11T03:14:31;0.20;;;0.20;;
64140;SDS011;50436;50.618;7.932;2024-01-11T03:17:19;0.20;;;0.20;;
64140;SDS011;50436;50.618;7.932;2024-01-11T03:20:05;0.20;;;0.20;;
64140;SDS011;50436;50.618;7.932;2024-01-11T03:22:52;0.20;;;0.20;;
64140;SDS011;50436;50.618;7.932;2024-01-11T03:25:38;0.20;;;0.20;;
64140;SDS011;50436;50.618;7.932;2024-01-11T03:28:23;0.20;;;0.20;;
64140;SDS011;50436;50.618;7.932;2024-01-11T03:31:09;0.20;;;0.20;;
64140;SDS011;50436;50.618;7.932;2024-01-11T03:33:55;0.20;;;0.20;;
64140;SDS011;50436;50.618;7.932;2024-01-11T03:36:41;0.20;;;0.20;;
64140;SDS011;50436;50.618;7.932;2024-01-11T03:39:27;0.20;;;0.20;;
64140;SDS011;50436;50.618;7.932;2024-01-11T03:42:13;0.25;;;0.25;;
64140;SDS011;50436;50.618;7.932;2024-01-11T03:44:59;0.20;;;0.20;;
64140;SDS011;50436;50.618;7.932;2024-01-11T03:47:44;0.30;;;0.30;;
64140;SDS011;50436;50.618;7.932;2024-01-11T03:50:30;0.20;;;0.20;;
64140;SDS011;50436;50.618;7.932;2024-01-11T03:53:17;0.20;;;0.20;;
64140;SDS011;50436;50.618;7.932;2024-01-11T03:56:03;0.20;;;0.20;;
64140;SDS011;50436;50.618;7.932;2024-01-11T03:58:49;0.20;;;0.20;;
64140;SDS011;50436;50.618;7.932;2024-01-11T04:01:38;0.20;;;0.20;;
64140;SDS011;50436;50.618;7.932;2024-01-11T04:04:25;0.20;;;0.20;;
64140;SDS011;50436;50.618;7.932;2024-01-11T04:07:11;0.20;;;0.20;;
64140;SDS011;50436;50.618;7.932;2024-01-11T04:09:57;0.20;;;0.20;;
64140;SDS011;50436;50.618;7.932;2024-01-11T04:12:43;0.20;;;0.20;;
64140;SDS011;50436;50.618;7.932;2024-01-11T04:15:29;0.20;;;0.20;;
64140;SDS011;50436;50.618;7.932;2024-01-11T04:18:15;0.20;;;0.20;;
64140;SDS011;50436;50.618;7.932;2024-01-11T04:21:00;0.20;;;0.20;;
64140;SDS011;50436;50.618;7.932;2024-01-11T04:23:46;0.20;;;0.20;;
64140;SDS011;50436;50.618;7.932;2024-01-11T04:26:32;0.20;;;0.20;;
64140;SDS011;50436;50.618;7.932;2024-01-11T04:29:18;0.20;;;0.20;;
64140;SDS011;50436;50.618;7.932;2024-01-11T04:32:04;0.20;;;0.20;;
64140;SDS011;50436;50.618;7.932;2024-01-11T04:34:51;0.20;;;0.20;;
64140;SDS011;50436;50.618;7.932;2024-01-11T04:37:36;0.20;;;0.20;;
64140;SDS011;50436;50.618;7.932;2024-01-11T04:40:22;0.20;;;0.20;;
64140;SDS011;50436;50.618;7.932;2024-01-11T04:43:08;0.20;;;0.20;;
64140;SDS011;50436;50.618;7.932;2024-01-11T04:45:54;0.20;;;0.20;;
64140;SDS011;50436;50.618;7.932;2024-01-11T04:48:40;0.20;;;0.20;;
64140;SDS011;50436;50.618;7.932;2024-01-11T04:51:26;0.20;;;0.20;;
64140;SDS011;50436;50.618;7.932;2024-01-11T04:54:12;0.20;;;0.20;;
64140;SDS011;50436;50.618;7.932;2024-01-11T04:56:58;0.20;;;0.20;;
64140;SDS011;50436;50.618;7.932;2024-01-11T04:59:44;0.20;;;0.20;;
64140;SDS011;50436;50.618;7.932;2024-01-11T05:02:30;0.20;;;0.20;;
64140;SDS011;50436;50.618;7.932;2024-01-11T05:05:16;0.20;;;0.20;;
64140;SDS011;50436;50.618;7.932;2024-01-11T05:08:02;0.20;;;0.20;;
64140;SDS011;50436;50.618;7.932;2024-01-11T05:10:47;0.20;;;0.20;;
64140;SDS011;50436;50.618;7.932;2024-01-11T05:13:33;0.20;;;0.20;;
64140;SDS011;50436;50.618;7.932;2024-01-11T05:16:28;0.20;;;0.20;;
64140;SDS011;50436;50.618;7.932;2024-01-11T05:19:14;0.20;;;0.20;;
64140;SDS011;50436;50.618;7.932;2024-01-11T05:22:00;0.20;;;0.20;;
64140;SDS011;50436;50.618;7.932;2024-01-11T05:24:46;0.15;;;0.15;;
64140;SDS011;50436;50.618;7.932;2024-01-11T05:27:32;0.20;;;0.20;;
64140;SDS011;50436;50.618;7.932;2024-01-11T05:30:18;0.20;;;0.20;;
64140;SDS011;50436;50.618;7.932;2024-01-11T05:33:04;0.20;;;0.20;;
64140;SDS011;50436;50.618;7.932;2024-01-11T05:35:49;0.20;;;0.20;;
64140;SDS011;50436;50.618;7.932;2024-01-11T05:38:38;0.20;;;0.20;;
64140;SDS011;50436;50.618;7.932;2024-01-11T05:41:25;0.20;;;0.20;;
64140;SDS011;50436;50.618;7.932;2024-01-11T05:44:10;0.20;;;0.20;;
64140;SDS011;50436;50.618;7.932;2024-01-11T05:46:56;0.20;;;0.20;;
64140;SDS011;50436;50.618;7.932;2024-01-11T05:49:42;0.20;;;0.20;;
64140;SDS011;50436;50.618;7.932;2024-01-11T05:52:28;0.20;;;0.20;;
64140;SDS011;50436;50.618;7.932;2024-01-11T05:55:14;0.20;;;0.20;;
64140;SDS011;50436;50.618;7.932;2024-01-11T05:58:00;0.20;;;0.20;;
64140;SDS011;50436;50.618;7.932;2024-01-11T06:00:46;0.20;;;0.20;;
64140;SDS011;50436;50.618;7.932;2024-01-11T06:03:32;0.20;;;0.20;;
64140;SDS011;50436;50.618;7.932;2024-01-11T06:06:19;0.20;;;0.20;;
64140;SDS011;50436;50.618;7.932;2024-01-11T06:09:05;0.20;;;0.20;;
64140;SDS011;50436;50.618;7.932;2024-01-11T06:11:51;0.20;;;0.20;;
64140;SDS011;50436;50.618;7.932;2024-01-11T06:14:37;0.20;;;0.20;;
64140;SDS011;50436;50.618;7.932;2024-01-11T06:17:23;0.10;;;0.10;;
64140;SDS011;50436;50.618;7.932;2024-01-11T06:20:09;0.17;;;0.17;;
64140;SDS011;50436;50.618;7.932;2024-01-11T06:22:56;0.20;;;0.20;;
64140;SDS011;50436;50.618;7.932;2024-01-11T06:25:41;0.20;;;0.20;;
64140;SDS011;50436;50.618;7.932;2024-01-11T06:28:27;0.20;;;0.20;;
64140;SDS011;50436;50.618;7.932;2024-01-11T06:31:13;0.20;;;0.20;;
64140;SDS011;50436;50.618;7.932;2024-01-11T06:33:59;0.20;;;0.20;;
64140;SDS011;50436;50.618;7.932;2024-01-11T06:36:45;0.20;;;0.20;;
64140;SDS011;50436;50.618;7.932;2024-01-11T06:39:31;0.20;;;0.20;;
64140;SDS011;50436;50.618;7.932;2024-01-11T06:42:17;0.20;;;0.20;;
64140;SDS011;50436;50.618;7.932;2024-01-11T06:45:03;0.20;;;0.20;;
64140;SDS011;50436;50.618;7.932;2024-01-11T06:47:49;0.20;;;0.20;;
64140;SDS011;50436;50.618;7.932;2024-01-11T06:50:35;0.13;;;0.13;;
64140;SDS011;50436;50.618;7.932;2024-01-11T06:53:20;0.20;;;0.20;;
64140;SDS011;50436;50.618;7.932;2024-01-11T06:56:15;0.20;;;0.20;;
64140;SDS011;50436;50.618;7.932;2024-01-11T06:59:02;0.20;;;0.20;;
64140;SDS011;50436;50.618;7.932;2024-01-11T07:01:47;0.20;;;0.20;;
64140;SDS011;50436;50.618;7.932;2024-01-11T07:04:34;0.20;;;0.20;;
64140;SDS011;50436;50.618;7.932;2024-01-11T07:07:21;0.10;;;0.10;;
64140;SDS011;50436;50.618;7.932;2024-01-11T07:10:07;0.20;;;0.20;;
64140;SDS011;50436;50.618;7.932;2024-01-11T07:12:54;0.20;;;0.20;;
64140;SDS011;50436;50.618;7.932;2024-01-11T07:15:40;0.20;;;0.20;;
64140;SDS011;50436;50.618;7.932;2024-01-11T07:18:25;0.20;;;0.20;;
64140;SDS011;50436;50.618;7.932;2024-01-11T07:21:11;0.20;;;0.20;;
64140;SDS011;50436;50.618;7.932;2024-01-11T07:23:58;0.20;;;0.20;;
64140;SDS011;50436;50.618;7.932;2024-01-11T07:26:44;0.20;;;0.20;;
64140;SDS011;50436;50.618;7.932;2024-01-11T07:29:30;0.20;;;0.20;;
64140;SDS011;50436;50.618;7.932;2024-01-11T07:32:16;0.20;;;0.20;;
64140;SDS011;50436;50.618;7.932;2024-01-11T07:35:02;0.20;;;0.20;;
64140;SDS011;50436;50.618;7.932;2024-01-11T07:37:48;0.20;;;0.20;;
64140;SDS011;50436;50.618;7.932;2024-01-11T07:40:35;0.20;;;0.20;;
64140;SDS011;50436;50.618;7.932;2024-01-11T07:43:21;0.20;;;0.20;;
64140;SDS011;50436;50.618;7.932;2024-01-11T07:46:07;0.20;;;0.20;;
64140;SDS011;50436;50.618;7.932;2024-01-11T07:48:53;0.20;;;0.20;;
64140;SDS011;50436;50.618;7.932;2024-01-11T07:51:39;0.20;;;0.20;;
64140;SDS011;50436;50.618;7.932;2024-01-11T07:54:24;0.20;;;0.20;;
64140;SDS011;50436;50.618;7.932;2024-01-11T07:57:10;0.20;;;0.20;;
64140;SDS011;50436;50.618;7.932;2024-01-11T07:59:56;0.20;;;0.20;;
64140;SDS011;50436;50.618;7.932;2024-01-11T08:02:44;0.20;;;0.20;;
64140;SDS011;50436;50.618;7.932;2024-01-11T08:05:30;0.20;;;0.20;;
64140;SDS011;50436;50.618;7.932;2024-01-11T08:08:16;0.20;;;0.20;;
64140;SDS011;50436;50.618;7.932;2024-01-11T08:11:02;0.20;;;0.20;;
64140;SDS011;50436;50.618;7.932;2024-01-11T08:13:48;0.20;;;0.20;;
64140;SDS011;50436;50.618;7.932;2024-01-11T08:16:34;0.20;;;0.20;;
64140;SDS011;50436;50.618;7.932;2024-01-11T08:19:20;0.20;;;0.20;;
64140;SDS011;50436;50.618;7.932;2024-01-11T08:22:06;0.20;;;0.20;;
64140;SDS011;50436;50.618;7.932;2024-01-11T08:24:52;0.20;;;0.20;;
64140;SDS011;50436;50.618;7.932;2024-01-11T08:27:38;0.20;;;0.20;;
64140;SDS011;50436;50.618;7.932;2024-01-11T08:30:24;0.20;;;0.20;;
64140;SDS011;50436;50.618;7.932;2024-01-11T08:33:10;0.20;;;0.20;;
64140;SDS011;50436;50.618;7.932;2024-01-11T08:35:56;0.20;;;0.20;;
64140;SDS011;50436;50.618;7.932;2024-01-11T08:38:42;0.20;;;0.20;;
64140;SDS011;50436;50.618;7.932;2024-01-11T08:41:28;0.20;;;0.20;;
64140;SDS011;50436;50.618;7.932;2024-01-11T08:44:13;0.30;;;0.30;;
64140;SDS011;50436;50.618;7.932;2024-01-11T08:46:59;0.20;;;0.20;;
64140;SDS011;50436;50.618;7.932;2024-01-11T08:49:45;0.20;;;0.20;;
64140;SDS011;50436;50.618;7.932;2024-01-11T08:52:32;0.20;;;0.20;;
64140;SDS011;50436;50.618;7.932;2024-01-11T08:55:18;0.20;;;0.20;;
64140;SDS011;50436;50.618;7.932;2024-01-11T08:58:04;0.20;;;0.20;;
64140;SDS011;50436;50.618;7.932;2024-01-11T09:00:50;0.20;;;0.20;;
64140;SDS011;50436;50.618;7.932;2024-01-11T09:03:36;0.20;;;0.20;;
64140;SDS011;50436;50.618;7.932;2024-01-11T09:06:22;0.20;;;0.20;;
64140;SDS011;50436;50.618;7.932;2024-01-11T09:09:08;0.30;;;0.30;;
64140;SDS011;50436;50.618;7.932;2024-01-11T09:11:55;0.20;;;0.20;;
64140;SDS011;50436;50.618;7.932;2024-01-11T09:14:41;0.20;;;0.20;;
64140;SDS011;50436;50.618;7.932;2024-01-11T09:17:27;0.20;;;0.20;;
64140;SDS011;50436;50.618;7.932;2024-01-11T09:20:13;0.25;;;0.25;;
64140;SDS011;50436;50.618;7.932;2024-01-11T09:22:59;0.20;;;0.20;;
64140;SDS011;50436;50.618;7.932;2024-01-11T09:25:49;0.30;;;0.30;;
64140;SDS011;50436;50.618;7.932;2024-01-11T09:28:34;0.30;;;0.30;;
64140;SDS011;50436;50.618;7.932;2024-01-11T09:31:20;0.40;;;0.40;;
64140;SDS011;50436;50.618;7.932;2024-01-11T09:34:06;0.40;;;0.30;;
64140;SDS011;50436;50.618;7.932;2024-01-11T09:36:53;0.50;;;0.40;;
64140;SDS011;50436;50.618;7.932;2024-01-11T09:39:39;0.50;;;0.40;;
64140;SDS011;50436;50.618;7.932;2024-01-11T09:42:24;0.47;;;0.40;;
64140;SDS011;50436;50.618;7.932;2024-01-11T09:45:15;0.35;;;0.35;;
64140;SDS011;50436;50.618;7.932;2024-01-11T09:48:01;0.50;;;0.40;;
64140;SDS011;50436;50.618;7.932;2024-01-11T09:50:48;0.40;;;0.30;;
64140;SDS011;50436;50.618;7.932;2024-01-11T09:53:36;0.50;;;0.40;;
64140;SDS011;50436;50.618;7.932;2024-01-11T09:56:24;0.40;;;0.40;;
64140;SDS011;50436;50.618;7.932;2024-01-11T09:59:12;0.65;;;0.47;;
64140;SDS011;50436;50.618;7.932;2024-01-11T10:01:58;0.40;;;0.40;;
64140;SDS011;50436;50.618;7.932;2024-01-11T10:04:45;0.40;;;0.40;;
64140;SDS011;50436;50.618;7.932;2024-01-11T10:07:32;0.32;;;0.32;;
64140;SDS011;50436;50.618;7.932;2024-01-11T10:10:19;0.30;;;0.30;;
64140;SDS011;50436;50.618;7.932;2024-01-11T10:13:05;0.30;;;0.30;;
64140;SDS011;50436;50.618;7.932;2024-01-11T10:15:51;0.30;;;0.30;;
64140;SDS011;50436;50.618;7.932;2024-01-11T10:18:37;0.30;;;0.30;;
64140;SDS011;50436;50.618;7.932;2024-01-11T10:21:23;0.25;;;0.25;;
64140;SDS011;50436;50.618;7.932;2024-01-11T10:24:18;0.20;;;0.20;;
64140;SDS011;50436;50.618;7.932;2024-01-11T10:27:19;0.30;;;0.30;;
64140;SDS011;50436;50.618;7.932;2024-01-11T10:30:06;0.30;;;0.30;;
64140;SDS011;50436;50.618;7.932;2024-01-11T10:32:57;0.30;;;0.30;;
64140;SDS011;50436;50.618;7.932;2024-01-11T10:35:43;0.30;;;0.30;;
64140;SDS011;50436;50.618;7.932;2024-01-11T10:38:30;0.30;;;0.30;;
64140;SDS011;50436;50.618;7.932;2024-01-11T10:41:20;0.25;;;0.25;;
64140;SDS011;50436;50.618;7.932;2024-01-11T10:44:09;0.20;;;0.20;;
64140;SDS011;50436;50.618;7.932;2024-01-11T10:47:05;0.30;;;0.30;;
64140;SDS011;50436;50.618;7.932;2024-01-11T10:49:54;0.28;;;0.28;;
64140;SDS011;50436;50.618;7.932;2024-01-11T10:52:42;0.30;;;0.30;;
64140;SDS011;50436;50.618;7.932;2024-01-11T10:55:39;0.22;;;0.22;;
64140;SDS011;50436;50.618;7.932;2024-01-11T10:58:27;0.30;;;0.30;;
64140;SDS011;50436;50.618;7.932;2024-01-11T11:01:14;0.22;;;0.22;;
64140;SDS011;50436;50.618;7.932;2024-01-11T11:04:02;0.20;;;0.20;;
64140;SDS011;50436;50.618;7.932;2024-01-11T11:06:54;0.20;;;0.20;;
64140;SDS011;50436;50.618;7.932;2024-01-11T11:09:42;0.20;;;0.20;;
64140;SDS011;50436;50.618;7.932;2024-01-11T11:12:31;0.17;;;0.17;;
64140;SDS011;50436;50.618;7.932;2024-01-11T11:15:18;0.10;;;0.10;;
64140;SDS011;50436;50.618;7.932;2024-01-11T11:18:05;0.20;;;0.20;;
64140;SDS011;50436;50.618;7.932;2024-01-11T11:20:52;0.17;;;0.17;;
64140;SDS011;50436;50.618;7.932;2024-01-11T11:23:39;0.20;;;0.20;;
64140;SDS011;50436;50.618;7.932;2024-01-11T11:26:25;0.20;;;0.20;;
64140;SDS011;50436;50.618;7.932;2024-01-11T11:29:18;0.20;;;0.20;;
64140;SDS011;50436;50.618;7.932;2024-01-11T11:32:05;0.20;;;0.20;;
64140;SDS011;50436;50.618;7.932;2024-01-11T11:34:51;0.20;;;0.20;;
64140;SDS011;50436;50.618;7.932;2024-01-11T11:37:38;0.10;;;0.10;;
64140;SDS011;50436;50.618;7.932;2024-01-11T11:40:39;0.10;;;0.10;;
64140;SDS011;50436;50.618;7.932;2024-01-11T11:43:28;0.20;;;0.20;;
64140;SDS011;50436;50.618;7.932;2024-01-11T11:46:15;0.20;;;0.20;;
64140;SDS011;50436;50.618;7.932;2024-01-11T11:49:01;0.20;;;0.20;;
64140;SDS011;50436;50.618;7.932;2024-01-11T11:51:47;0.30;;;0.30;;
64140;SDS011;50436;50.618;7.932;2024-01-11T11:54:34;0.20;;;0.20;;
64140;SDS011;50436;50.618;7.932;2024-01-11T11:57:20;0.20;;;0.20;;
64140;SDS011;50436;50.618;7.932;2024-01-11T12:00:09;0.20;;;0.20;;
64140;SDS011;50436;50.618;7.932;2024-01-11T12:03:00;0.20;;;0.20;;
64140;SDS011;50436;50.618;7.932;2024-01-11T12:05:49;0.20;;;0.20;;
64140;SDS011;50436;50.618;7.932;2024-01-11T12:08:35;0.20;;;0.20;;
64140;SDS011;50436;50.618;7.932;2024-01-11T12:11:21;0.17;;;0.17;;
64140;SDS011;50436;50.618;7.932;2024-01-11T12:14:08;0.20;;;0.20;;
64140;SDS011;50436;50.618;7.932;2024-01-11T12:16:57;0.10;;;0.10;;
64140;SDS011;50436;50.618;7.932;2024-01-11T12:19:43;0.10;;;0.10;;
64140;SDS011;50436;50.618;7.932;2024-01-11T12:22:29;0.10;;;0.10;;
64140;SDS011;50436;50.618;7.932;2024-01-11T12:25:15;0.20;;;0.20;;
64140;SDS011;50436;50.618;7.932;2024-01-11T12:28:01;0.20;;;0.20;;
64140;SDS011;50436;50.618;7.932;2024-01-11T12:30:47;0.20;;;0.20;;
64140;SDS011;50436;50.618;7.932;2024-01-11T12:33:33;0.10;;;0.10;;
64140;SDS011;50436;50.618;7.932;2024-01-11T12:36:20;0.30;;;0.30;;
64140;SDS011;50436;50.618;7.932;2024-01-11T12:39:06;0.10;;;0.10;;
64140;SDS011;50436;50.618;7.932;2024-01-11T12:41:54;0.10;;;0.10;;
64140;SDS011;50436;50.618;7.932;2024-01-11T12:44:42;0.10;;;0.10;;
64140;SDS011;50436;50.618;7.932;2024-01-11T12:47:29;0.20;;;0.20;;
64140;SDS011;50436;50.618;7.932;2024-01-11T12:50:17;0.10;;;0.10;;
64140;SDS011;50436;50.618;7.932;2024-01-11T12:53:13;0.10;;;0.10;;
64140;SDS011;50436;50.618;7.932;2024-01-11T12:56:05;0.20;;;0.20;;
64140;SDS011;50436;50.618;7.932;2024-01-11T12:59:04;0.20;;;0.20;;
64140;SDS011;50436;50.618;7.932;2024-01-11T13:01:52;0.10;;;0.10;;
64140;SDS011;50436;50.618;7.932;2024-01-11T13:04:44;0.00;;;0.00;;
64140;SDS011;50436;50.618;7.932;2024-01-11T13:10:17;0.10;;;0.10;;
64140;SDS011;50436;50.618;7.932;2024-01-11T13:13:03;0.00;;;0.00;;
64140;SDS011;50436;50.618;7.932;2024-01-11T13:15:55;0.10;;;0.10;;
64140;SDS011;50436;50.618;7.932;2024-01-11T13:18:41;0.10;;;0.10;;
64140;SDS011;50436;50.618;7.932;2024-01-11T13:21:27;0.10;;;0.10;;
64140;SDS011;50436;50.618;7.932;2024-01-11T13:24:13;0.10;;;0.10;;
64140;SDS011;50436;50.618;7.932;2024-01-11T13:26:59;0.10;;;0.10;;
64140;SDS011;50436;50.618;7.932;2024-01-11T13:29:45;0.10;;;0.10;;
64140;SDS011;50436;50.618;7.932;2024-01-11T13:32:30;0.10;;;0.10;;
64140;SDS011;50436;50.618;7.932;2024-01-11T13:35:16;0.10;;;0.10;;
64140;SDS011;50436;50.618;7.932;2024-01-11T13:38:02;0.10;;;0.10;;
64140;SDS011;50436;50.618;7.932;2024-01-11T13:40:49;0.10;;;0.10;;
64140;SDS011;50436;50.618;7.932;2024-01-11T13:43:35;0.10;;;0.10;;
64140;SDS011;50436;50.618;7.932;2024-01-11T13:46:21;0.10;;;0.10;;
64140;SDS011;50436;50.618;7.932;2024-01-11T13:49:07;0.10;;;0.10;;
64140;SDS011;50436;50.618;7.932;2024-01-11T13:51:52;0.00;;;0.00;;
64140;SDS011;50436;50.618;7.932;2024-01-11T13:54:38;0.00;;;0.00;;
64140;SDS011;50436;50.618;7.932;2024-01-11T13:57:24;0.20;;;0.20;;
64140;SDS011;50436;50.618;7.932;2024-01-11T14:00:10;0.10;;;0.10;;
64140;SDS011;50436;50.618;7.932;2024-01-11T14:02:57;0.10;;;0.10;;
64140;SDS011;50436;50.618;7.932;2024-01-11T14:05:42;0.10;;;0.10;;
64140;SDS011;50436;50.618;7.932;2024-01-11T14:08:28;0.10;;;0.10;;
64140;SDS011;50436;50.618;7.932;2024-01-11T14:11:14;0.10;;;0.10;;
64140;SDS011;50436;50.618;7.932;2024-01-11T14:14:00;0.10;;;0.10;;
64140;SDS011;50436;50.618;7.932;2024-01-11T14:16:46;0.10;;;0.10;;
64140;SDS011;50436;50.618;7.932;2024-01-11T14:19:32;0.10;;;0.10;;
64140;SDS011;50436;50.618;7.932;2024-01-11T14:22:18;0.10;;;0.10;;
64140;SDS011;50436;50.618;7.932;2024-01-11T14:25:04;0.10;;;0.10;;
64140;SDS011;50436;50.618;7.932;2024-01-11T14:27:51;0.20;;;0.20;;
64140;SDS011;50436;50.618;7.932;2024-01-11T14:30:38;0.10;;;0.10;;
64140;SDS011;50436;50.618;7.932;2024-01-11T14:33:24;0.10;;;0.10;;
64140;SDS011;50436;50.618;7.932;2024-01-11T14:36:09;0.10;;;0.10;;
64140;SDS011;50436;50.618;7.932;2024-01-11T14:38:55;0.10;;;0.10;;
64140;SDS011;50436;50.618;7.932;2024-01-11T14:41:41;0.10;;;0.10;;
64140;SDS011;50436;50.618;7.932;2024-01-11T14:44:27;0.10;;;0.10;;
64140;SDS011;50436;50.618;7.932;2024-01-11T14:47:13;0.10;;;0.10;;
64140;SDS011;50436;50.618;7.932;2024-01-11T14:49:59;0.10;;;0.10;;
64140;SDS011;50436;50.618;7.932;2024-01-11T14:52:45;0.20;;;0.20;;
64140;SDS011;50436;50.618;7.932;2024-01-11T14:55:31;0.10;;;0.10;;
64140;SDS011;50436;50.618;7.932;2024-01-11T14:58:17;0.10;;;0.10;;
64140;SDS011;50436;50.618;7.932;2024-01-11T15:01:03;0.10;;;0.10;;
64140;SDS011;50436;50.618;7.932;2024-01-11T15:03:49;0.10;;;0.10;;
64140;SDS011;50436;50.618;7.932;2024-01-11T15:06:35;0.10;;;0.10;;
64140;SDS011;50436;50.618;7.932;2024-01-11T15:09:22;0.10;;;0.10;;
64140;SDS011;50436;50.618;7.932;2024-01-11T15:12:08;0.10;;;0.10;;
64140;SDS011;50436;50.618;7.932;2024-01-11T15:14:54;0.10;;;0.10;;
64140;SDS011;50436;50.618;7.932;2024-01-11T15:17:40;0.10;;;0.10;;
64140;SDS011;50436;50.618;7.932;2024-01-11T15:20:26;0.10;;;0.10;;
64140;SDS011;50436;50.618;7.932;2024-01-11T15:23:11;0.10;;;0.10;;
64140;SDS011;50436;50.618;7.932;2024-01-11T15:25:57;0.10;;;0.10;;
64140;SDS011;50436;50.618;7.932;2024-01-11T15:28:43;0.10;;;0.10;;
64140;SDS011;50436;50.618;7.932;2024-01-11T15:31:29;0.15;;;0.15;;
64140;SDS011;50436;50.618;7.932;2024-01-11T15:34:15;0.17;;;0.17;;
64140;SDS011;50436;50.618;7.932;2024-01-11T15:37:01;0.10;;;0.10;;
64140;SDS011;50436;50.618;7.932;2024-01-11T15:39:46;0.17;;;0.17;;
64140;SDS011;50436;50.618;7.932;2024-01-11T15:42:32;0.10;;;0.10;;
64140;SDS011;50436;50.618;7.932;2024-01-11T15:45:19;0.10;;;0.10;;
64140;SDS011;50436;50.618;7.932;2024-01-11T15:48:05;0.10;;;0.10;;
64140;SDS011;50436;50.618;7.932;2024-01-11T15:50:52;0.10;;;0.10;;
64140;SDS011;50436;50.618;7.932;2024-01-11T15:53:40;0.10;;;0.10;;
64140;SDS011;50436;50.618;7.932;2024-01-11T15:56:26;0.10;;;0.10;;
64140;SDS011;50436;50.618;7.932;2024-01-11T15:59:12;0.10;;;0.10;;
64140;SDS011;50436;50.618;7.932;2024-01-11T16:01:58;0.10;;;0.10;;
64140;SDS011;50436;50.618;7.932;2024-01-11T16:04:44;0.17;;;0.10;;
64140;SDS011;50436;50.618;7.932;2024-01-11T16:07:30;0.10;;;0.10;;
64140;SDS011;50436;50.618;7.932;2024-01-11T16:10:16;0.10;;;0.10;;
64140;SDS011;50436;50.618;7.932;2024-01-11T16:13:02;0.10;;;0.10;;
64140;SDS011;50436;50.618;7.932;2024-01-11T16:15:48;0.10;;;0.10;;
64140;SDS011;50436;50.618;7.932;2024-01-11T16:18:34;0.13;;;0.13;;
64140;SDS011;50436;50.618;7.932;2024-01-11T16:21:21;0.13;;;0.13;;
64140;SDS011;50436;50.618;7.932;2024-01-11T16:24:06;0.10;;;0.10;;
64140;SDS011;50436;50.618;7.932;2024-01-11T16:26:52;0.20;;;0.20;;
64140;SDS011;50436;50.618;7.932;2024-01-11T16:29:39;0.10;;;0.10;;
64140;SDS011;50436;50.618;7.932;2024-01-11T16:32:26;0.10;;;0.10;;
64140;SDS011;50436;50.618;7.932;2024-01-11T16:35:12;0.10;;;0.10;;
64140;SDS011;50436;50.618;7.932;2024-01-11T16:37:57;0.10;;;0.10;;
64140;SDS011;50436;50.618;7.932;2024-01-11T16:40:43;0.10;;;0.10;;
64140;SDS011;50436;50.618;7.932;2024-01-11T16:43:30;0.10;;;0.10;;
64140;SDS011;50436;50.618;7.932;2024-01-11T16:46:17;0.15;;;0.15;;